Bertopolis, Brazil
Current Conditions -  °F | °C
As of 4:00 PM on Thursday 30 Oct 2014 (Local Time) from SBPS Reporting Station
Broken Clouds Broken Clouds  
Wind Chill: 81°   Ceiling: 2000
Heat Index: 85°   Visibility: 6mi
Dew Point: 72°   Wind: 16mph
Humidity: 74%   Direction: 50°NE
Pressure: 29.94"   Gusts: 29mph
Location:  17.06°S, 40.57°W
Report Text: SBPS 301800Z 05014G25KT 9999 BKN020 27/22 Q1014
Loading
Personal Weather Stations






























Interactive Weather Map
Tropical Storm Tracking
New forecast layout! Learn more

10-Day Weather Forecast

Advertisements
Track Severe Weather on mobile